PAFA/FAI METAR and TAF weather

Enter ICAO airport designator
Station Type Date Time Source
PAFA METAR 2020/08/15 09:53 UTC NOAA

PAFA 150953Z 00000KT 10SM SCT100 12/08 A2994 RMK AO2 SLP141 T01220083 $


Station Type Date Time Source
PAFA Decoded METAR 2020/08/15 09:53 UTC NOAA

Fairbanks, Fairbanks International Airport, AK, United States (PAFA) 64-48-14N 147-52-34W 140M
Aug 15, 2020 - 05:53 AM EDT / 2020.08.15 0953 UTC
Wind: Calm:0
Visibility: 10 mile(s):0
Sky conditions: partly cloudy
Temperature: 54.0 F (12.2 C)
Dew Point: 46.9 F (8.3 C)
Relative Humidity: 77%
Pressure (altimeter): 29.94 in. Hg (1013 hPa)
ob: PAFA 150953Z 00000KT 10SM SCT100 12/08 A2994 RMK AO2 SLP141 T01220083
cycle: 10

Station Type Date Time Source
PAFA TAF 2020/08/15 06:48 UTC NOAA

TAF TAF PAFA 150530Z 1506/1612 34007KT P6SM FEW060 SCT090 BKN200
FM152200 02011KT P6SM VCSH FEW050 BKN070

Example: see airport list